Time;durP1;ratioP1;P1;durP2;ratioP2;P2;SDS_P1;SDS_P2;PMS_P1;PMS_P2;Temp;Humidity;BMP_temperature;BMP_pressure;BME280_temperature;BME280_humidity;BME280_pressure;Samples;Min_cycle;Max_cycle;Signal;HPM_P1;HPM_P2
2023/04/22 00:02:02;;;;;;;;;;;;;;;;;;5112144;28;20325;-65
2023/04/22 00:04:28;;;;;;;;;;;;;;;;;;5113382;28;19920;-62
2023/04/22 00:06:54;;;;;;;;;;;;;;;;;;5110066;28;19928;-62
2023/04/22 00:09:20;;;;;;;;;;;;;;;;;;5078196;28;19988;-62
2023/04/22 00:11:46;;;;;;;;;;;;;;;;;;5109914;28;19926;-62
2023/04/22 00:14:12;;;;;;;;;;;;;;;;;;5115087;28;19923;-62
2023/04/22 00:16:38;;;;;;;;;;;;;;;;;;5114293;28;19930;-62
2023/04/22 00:19:04;;;;;;;;;;;;;;;;;;5110691;28;19920;-62
2023/04/22 00:21:30;;;;;;;;;;;;;;;;;;5111173;28;19919;-63
2023/04/22 00:23:56;;;;;;;;;;;;;;;;;;5114305;28;20388;-62
2023/04/22 00:26:22;;;;;;;;;;;;;;;;;;5094917;28;20040;-61
2023/04/22 00:28:47;;;;;;;;;;;;;;;;;;5098317;28;19920;-61
2023/04/22 00:31:13;;;;;;;;;;;;;;;;;;5077859;28;19927;-62
2023/04/22 00:33:39;;;;;;;;;;;;;;;;;;5112845;28;20002;-62
2023/04/22 00:36:05;;;;;;;;;;;;;;;;;;5113162;28;19928;-62
2023/04/22 00:38:31;;;;;;;;;;;;;;;;;;5114268;28;19949;-61
2023/04/22 00:40:57;;;;;;;;;;;;;;;;;;5114671;28;19920;-61
2023/04/22 00:43:23;;;;;;;;;;;;;;;;;;5095415;28;20288;-62
2023/04/22 00:45:49;;;;;;;;;;;;;;;;;;5096065;28;19919;-62
2023/04/22 00:48:15;;;;;;;;;;;;;;;;;;5091847;28;19923;-62
2023/04/22 00:50:41;;;;;;;;;;;;;;;;;;5109772;28;19928;-62
2023/04/22 00:53:07;;;;;;;;;;;;;;;;;;5091342;28;19924;-62
2023/04/22 00:55:33;;;;;;;;;;;;;;;;;;5111496;28;19924;-62
2023/04/22 00:57:59;;;;;;;;;;;;;;;;;;5112169;28;19919;-62
2023/04/22 01:00:26;;;;;;;;;;;;;;;;;;5114969;28;20372;-62
2023/04/22 01:02:51;;;;;;;;;;;;;;;;;;5114887;28;20399;-62
2023/04/22 01:05:18;;;;;;;;;;;;;;;;;;5113217;28;19919;-62
2023/04/22 01:07:44;;;;;;;;;;;;;;;;;;5109811;28;19981;-62
2023/04/22 01:10:10;;;;;;;;;;;;;;;;;;5112959;28;20380;-62
2023/04/22 01:12:36;;;;;;;;;;;;;;;;;;5093743;28;19920;-62
2023/04/22 01:15:02;;;;;;;;;;;;;;;;;;5099119;28;20027;-62
2023/04/22 01:17:28;;;;;;;;;;;;;;;;;;5110507;28;19927;-62
2023/04/22 01:19:54;;;;;;;;;;;;;;;;;;5112862;28;19919;-62
2023/04/22 01:22:20;;;;;;;;;;;;;;;;;;5106824;28;19927;-62
2023/04/22 01:24:46;;;;;;;;;;;;;;;;;;5110522;28;19923;-62
2023/04/22 01:27:12;;;;;;;;;;;;;;;;;;5112318;28;21952;-62
2023/04/22 01:29:38;;;;;;;;;;;;;;;;;;5094947;28;19970;-62
2023/04/22 01:32:04;;;;;;;;;;;;;;;;;;5112613;28;19919;-62
2023/04/22 01:34:30;;;;;;;;;;;;;;;;;;5094658;28;19930;-62
2023/04/22 01:36:55;;;;;;;;;;;;;;;;;;5107007;28;19924;-62
2023/04/22 01:39:21;;;;;;;;;;;;;;;;;;5110445;28;19932;-62
2023/04/22 01:41:47;;;;;;;;;;;;;;;;;;5094733;28;20024;-61
2023/04/22 01:44:13;;;;;;;;;;;;;;;;;;5078465;28;20388;-62
2023/04/22 01:46:39;;;;;;;;;;;;;;;;;;5091075;28;20010;-62
2023/04/22 01:49:05;;;;;;;;;;;;;;;;;;5112179;28;19919;-61
2023/04/22 01:51:31;;;;;;;;;;;;;;;;;;5112593;28;19930;-61
2023/04/22 01:53:57;;;;;;;;;;;;;;;;;;5103967;28;19919;-61
2023/04/22 01:56:23;;;;;;;;;;;;;;;;;;5111597;28;19924;-61
2023/04/22 01:58:49;;;;;;;;;;;;;;;;;;5114006;28;19958;-61
2023/04/22 02:01:14;;;;;;;;;;;;;;;;;;5112790;28;20388;-62
2023/04/22 02:03:40;;;;;;;;;;;;;;;;;;5113922;28;19924;-62
2023/04/22 02:06:06;;;;;;;;;;;;;;;;;;5088698;28;19923;-61
2023/04/22 02:08:32;;;;;;;;;;;;;;;;;;5108153;28;19927;-61
2023/04/22 02:10:59;;;;;;;;;;;;;;;;;;5075331;28;19920;-62
2023/04/22 02:13:25;;;;;;;;;;;;;;;;;;5094634;28;19985;-62
2023/04/22 02:15:51;;;;;;;;;;;;;;;;;;5112877;28;20002;-61
2023/04/22 02:18:18;;;;;;;;;;;;;;;;;;5112412;28;20436;-61
2023/04/22 02:20:44;;;;;;;;;;;;;;;;;;5094112;28;19920;-61
2023/04/22 02:23:10;;;;;;;;;;;;;;;;;;5112296;28;19920;-61
2023/04/22 02:25:36;;;;;;;;;;;;;;;;;;5112121;28;19924;-62
2023/04/22 02:28:02;;;;;;;;;;;;;;;;;;5086748;28;19920;-62
2023/04/22 02:30:28;;;;;;;;;;;;;;;;;;5111656;28;19973;-62
2023/04/22 02:32:54;;;;;;;;;;;;;;;;;;5087208;28;19924;-62
2023/04/22 02:35:20;;;;;;;;;;;;;;;;;;5109158;28;20426;-62
2023/04/22 02:37:46;;;;;;;;;;;;;;;;;;5112600;28;19919;-62
2023/04/22 02:40:12;;;;;;;;;;;;;;;;;;5111913;28;19926;-62
2023/04/22 02:42:38;;;;;;;;;;;;;;;;;;5109834;28;19924;-62
2023/04/22 02:45:04;;;;;;;;;;;;;;;;;;5102675;28;19959;-62
2023/04/22 02:47:30;;;;;;;;;;;;;;;;;;5093618;28;19958;-62
2023/04/22 02:49:56;;;;;;;;;;;;;;;;;;5111514;28;19920;-62
2023/04/22 02:52:22;;;;;;;;;;;;;;;;;;5110077;28;19945;-62
2023/04/22 02:54:48;;;;;;;;;;;;;;;;;;5100629;28;20303;-62
2023/04/22 02:57:14;;;;;;;;;;;;;;;;;;5111834;28;19931;-62
2023/04/22 02:59:39;;;;;;;;;;;;;;;;;;5111492;28;19987;-62
2023/04/22 03:02:05;;;;;;;;;;;;;;;;;;5109372;28;19928;-62
2023/04/22 03:04:32;;;;;;;;;;;;;;;;;;5112960;28;19924;-62
2023/04/22 03:06:58;;;;;;;;;;;;;;;;;;5113075;28;19924;-62
2023/04/22 03:09:24;;;;;;;;;;;;;;;;;;5111503;28;19920;-62
2023/04/22 03:11:50;;;;;;;;;;;;;;;;;;5111565;28;19920;-62
2023/04/22 03:14:16;;;;;;;;;;;;;;;;;;5112101;28;20387;-62
2023/04/22 03:16:42;;;;;;;;;;;;;;;;;;5073877;28;19928;-62
2023/04/22 03:19:08;;;;;;;;;;;;;;;;;;5093379;28;20280;-62
2023/04/22 03:21:33;;;;;;;;;;;;;;;;;;5094665;28;19919;-62
2023/04/22 03:23:59;;;;;;;;;;;;;;;;;;5116511;28;19924;-62
2023/04/22 03:26:25;;;;;;;;;;;;;;;;;;5114365;28;20581;-62
2023/04/22 03:28:51;;;;;;;;;;;;;;;;;;5114609;28;19970;-62
2023/04/22 03:31:17;;;;;;;;;;;;;;;;;;5115894;28;20295;-62
2023/04/22 03:33:43;;;;;;;;;;;;;;;;;;5112024;28;19923;-62
2023/04/22 03:36:09;;;;;;;;;;;;;;;;;;5109544;28;20024;-62
2023/04/22 03:38:35;;;;;;;;;;;;;;;;;;5109995;28;19924;-62
2023/04/22 03:41:00;;;;;;;;;;;;;;;;;;5103251;28;19919;-62
2023/04/22 03:43:26;;;;;;;;;;;;;;;;;;5097210;28;20284;-62
2023/04/22 03:45:52;;;;;;;;;;;;;;;;;;5095626;28;19969;-62
2023/04/22 03:48:18;;;;;;;;;;;;;;;;;;5115750;28;20011;-62
2023/04/22 03:50:44;;;;;;;;;;;;;;;;;;5113942;28;20349;-62
2023/04/22 03:53:10;;;;;;;;;;;;;;;;;;5095343;28;19941;-62
2023/04/22 03:55:36;;;;;;;;;;;;;;;;;;5115422;28;20269;-62
2023/04/22 03:58:02;;;;;;;;;;;;;;;;;;5115114;28;19924;-62
2023/04/22 04:00:28;;;;;;;;;;;;;;;;;;5110908;28;20390;-62
2023/04/22 04:02:54;;;;;;;;;;;;;;;;;;5114322;28;19926;-61
2023/04/22 04:05:20;;;;;;;;;;;;;;;;;;5113682;28;20261;-61
2023/04/22 04:07:46;;;;;;;;;;;;;;;;;;5112927;28;19931;-61
2023/04/22 04:10:12;;;;;;;;;;;;;;;;;;5083539;28;19923;-61
2023/04/22 04:12:37;;;;;;;;;;;;;;;;;;5106284;28;19963;-61
2023/04/22 04:15:03;;;;;;;;;;;;;;;;;;5095485;28;19961;-61
2023/04/22 04:17:30;;;;;;;;;;;;;;;;;;5111116;28;20011;-61
2023/04/22 04:19:56;;;;;;;;;;;;;;;;;;5096347;28;20387;-62
2023/04/22 04:22:22;;;;;;;;;;;;;;;;;;5114897;28;19967;-61
2023/04/22 04:24:48;;;;;;;;;;;;;;;;;;5110806;28;20014;-61
2023/04/22 04:27:14;;;;;;;;;;;;;;;;;;5114401;28;20023;-61
2023/04/22 04:29:40;;;;;;;;;;;;;;;;;;5113411;28;20381;-63
2023/04/22 04:32:07;;;;;;;;;;;;;;;;;;5096124;28;19924;-61
2023/04/22 04:34:33;;;;;;;;;;;;;;;;;;5097932;28;20011;-62
2023/04/22 04:36:59;;;;;;;;;;;;;;;;;;5112669;28;19966;-62
2023/04/22 04:39:27;;;;;;;;;;;;;;;;;;5095439;28;20011;-61
2023/04/22 04:41:54;;;;;;;;;;;;;;;;;;5106273;28;19981;-61
2023/04/22 04:44:19;;;;;;;;;;;;;;;;;;5108397;28;19926;-61
2023/04/22 04:46:46;;;;;;;;;;;;;;;;;;5114421;28;20275;-62
2023/04/22 04:49:11;;;;;;;;;;;;;;;;;;5114464;28;19949;-62
2023/04/22 04:51:38;;;;;;;;;;;;;;;;;;5096660;28;19920;-61
2023/04/22 04:54:03;;;;;;;;;;;;;;;;;;5114578;28;19920;-61
2023/04/22 04:56:29;;;;;;;;;;;;;;;;;;5110975;28;19934;-61
2023/04/22 04:58:55;;;;;;;;;;;;;;;;;;5110278;28;19976;-61
2023/04/22 05:01:21;;;;;;;;;;;;;;;;;;5114388;28;20018;-61
2023/04/22 05:03:47;;;;;;;;;;;;;;;;;;5114527;28;20421;-61
2023/04/22 05:06:13;;;;;;;;;;;;;;;;;;5090688;28;19928;-61
2023/04/22 05:08:39;;;;;;;;;;;;;;;;;;5114650;28;19920;-61
2023/04/22 05:11:05;;;;;;;;;;;;;;;;;;5114789;28;19919;-61
2023/04/22 05:13:31;;;;;;;;;;;;;;;;;;5096179;28;19931;-61
2023/04/22 05:15:58;;;;;;;;;;;;;;;;;;5108283;28;19932;-62
2023/04/22 05:18:24;;;;;;;;;;;;;;;;;;5104478;28;19921;-62
2023/04/22 05:20:50;;;;;;;;;;;;;;;;;;5112179;28;20379;-61
2023/04/22 05:23:16;;;;;;;;;;;;;;;;;;5075726;28;19924;-61
2023/04/22 05:25:42;;;;;;;;;;;;;;;;;;5094095;28;20323;-62
2023/04/22 05:28:08;;;;;;;;;;;;;;;;;;5094107;28;19924;-62
2023/04/22 05:30:34;;;;;;;;;;;;;;;;;;5098768;28;19927;-62
2023/04/22 05:33:00;;;;;;;;;;;;;;;;;;5111766;28;19924;-61
2023/04/22 05:35:25;;;;;;;;;;;;;;;;;;5093478;28;19923;-62
2023/04/22 05:37:51;;;;;;;;;;;;;;;;;;5082456;28;20370;-62
2023/04/22 05:40:17;;;;;;;;;;;;;;;;;;5075785;28;19957;-62
2023/04/22 05:42:43;;;;;;;;;;;;;;;;;;5093536;28;19924;-62
2023/04/22 05:45:09;;;;;;;;;;;;;;;;;;5093803;28;19927;-62
2023/04/22 05:47:35;;;;;;;;;;;;;;;;;;5107428;28;19924;-62
2023/04/22 05:50:01;;;;;;;;;;;;;;;;;;5106548;22;19924;-62
2023/04/22 05:52:27;;;;;;;;;;;;;;;;;;5086778;28;19955;-62
2023/04/22 05:54:52;;;;;;;;;;;;;;;;;;5058397;28;19934;-62
2023/04/22 05:57:18;;;;;;;;;;;;;;;;;;5074432;28;19920;-61
2023/04/22 05:59:45;;;;;;;;;;;;;;;;;;5074045;28;20702;-62
2023/04/22 06:02:11;;;;;;;;;;;;;;;;;;5076854;28;19974;-62
2023/04/22 06:04:36;;;;;;;;;;;;;;;;;;5073337;28;19921;-61
2023/04/22 06:07:02;;;;;;;;;;;;;;;;;;5074342;28;20403;-62
2023/04/22 06:09:28;;;;;;;;;;;;;;;;;;5087724;28;19924;-62
2023/04/22 06:11:55;;;;;;;;;;;;;;;;;;5092995;28;19943;-62
2023/04/22 06:14:21;;;;;;;;;;;;;;;;;;5063328;28;19972;-62
2023/04/22 06:16:49;;;;;;;;;;;;;;;;;;5074179;28;20016;-62
2023/04/22 06:19:15;;;;;;;;;;;;;;;;;;5089700;28;19927;-62
2023/04/22 06:21:42;;;;;;;;;;;;;;;;;;5093377;28;20013;-62
2023/04/22 06:24:09;;;;;;;;;;;;;;;;;;5090935;28;19928;-62
2023/04/22 06:26:35;;;;;;;;;;;;;;;;;;5087803;28;19927;-62
2023/04/22 06:29:01;;;;;;;;;;;;;;;;;;5092447;28;19946;-62
2023/04/22 06:31:27;;;;;;;;;;;;;;;;;;5097491;28;20369;-62
2023/04/22 06:33:53;;;;;;;;;;;;;;;;;;5098286;28;19933;-62
2023/04/22 06:36:19;;;;;;;;;;;;;;;;;;5093197;28;19920;-61
2023/04/22 06:38:45;;;;;;;;;;;;;;;;;;5093283;28;19926;-62
2023/04/22 06:41:11;;;;;;;;;;;;;;;;;;5087857;28;20327;-63
2023/04/22 06:43:37;;;;;;;;;;;;;;;;;;5083704;28;19920;-63
2023/04/22 06:46:03;;;;;;;;;;;;;;;;;;5088468;28;19959;-62
2023/04/22 06:48:29;;;;;;;;;;;;;;;;;;5090074;28;19931;-61
2023/04/22 06:50:56;;;;;;;;;;;;;;;;;;5071172;28;20294;-62
2023/04/22 06:53:22;;;;;;;;;;;;;;;;;;5074283;28;19975;-62
2023/04/22 06:55:49;;;;;;;;;;;;;;;;;;5087479;28;19924;-61
2023/04/22 06:58:14;;;;;;;;;;;;;;;;;;5089071;28;19954;-62
2023/04/22 07:00:40;;;;;;;;;;;;;;;;;;5093290;28;20020;-62
2023/04/22 07:03:06;;;;;;;;;;;;;;;;;;5082576;28;19977;-61
2023/04/22 07:05:32;;;;;;;;;;;;;;;;;;5093211;28;19924;-61
2023/04/22 07:07:58;;;;;;;;;;;;;;;;;;5090593;28;19939;-61
2023/04/22 07:10:24;;;;;;;;;;;;;;;;;;5084012;28;19927;-61
2023/04/22 07:12:50;;;;;;;;;;;;;;;;;;5093485;28;20377;-61
2023/04/22 07:15:16;;;;;;;;;;;;;;;;;;5087936;28;19924;-61
2023/04/22 07:17:42;;;;;;;;;;;;;;;;;;5085376;28;19920;-61
2023/04/22 07:20:08;;;;;;;;;;;;;;;;;;5076247;28;20300;-61
2023/04/22 07:22:34;;;;;;;;;;;;;;;;;;5094918;28;19931;-61
2023/04/22 07:25:00;;;;;;;;;;;;;;;;;;5093531;28;19920;-61
2023/04/22 07:27:26;;;;;;;;;;;;;;;;;;5095870;28;19928;-62
2023/04/22 07:29:52;;;;;;;;;;;;;;;;;;5095073;28;20297;-62
2023/04/22 07:32:17;;;;;;;;;;;;;;;;;;5096603;28;19928;-61
2023/04/22 07:34:43;;;;;;;;;;;;;;;;;;5077788;28;19924;-61
2023/04/22 07:37:09;;;;;;;;;;;;;;;;;;5092937;28;19920;-61
2023/04/22 07:39:35;;;;;;;;;;;;;;;;;;5094026;28;20337;-63
2023/04/22 07:42:02;;;;;;;;;;;;;;;;;;5092574;28;19923;-62
2023/04/22 07:44:28;;;;;;;;;;;;;;;;;;5091460;28;20381;-62
2023/04/22 07:46:54;;;;;;;;;;;;;;;;;;5088854;28;19970;-63
2023/04/22 07:49:20;;;;;;;;;;;;;;;;;;5094123;28;19935;-63
2023/04/22 07:51:46;;;;;;;;;;;;;;;;;;5095044;28;19920;-62
2023/04/22 07:54:12;;;;;;;;;;;;;;;;;;5093674;28;19924;-66
2023/04/22 07:56:38;;;;;;;;;;;;;;;;;;5092927;28;20315;-66
2023/04/22 07:59:04;;;;;;;;;;;;;;;;;;5088499;28;20433;-65
2023/04/22 08:01:30;;;;;;;;;;;;;;;;;;5079694;28;20265;-66
2023/04/22 08:03:56;;;;;;;;;;;;;;;;;;5090374;28;19931;-65
2023/04/22 08:06:22;;;;;;;;;;;;;;;;;;5088120;28;20026;-65
2023/04/22 08:08:48;;;;;;;;;;;;;;;;;;5072913;28;19973;-66
2023/04/22 08:11:14;;;;;;;;;;;;;;;;;;5077499;28;19928;-66
2023/04/22 08:13:40;;;;;;;;;;;;;;;;;;5094095;28;20304;-67
2023/04/22 08:16:06;;;;;;;;;;;;;;;;;;5092508;28;19920;-66
2023/04/22 08:18:32;;;;;;;;;;;;;;;;;;5076918;28;20447;-66
2023/04/22 08:20:58;;;;;;;;;;;;;;;;;;5076450;28;20007;-67
2023/04/22 08:23:23;;;;;;;;;;;;;;;;;;5092453;28;19924;-67
2023/04/22 08:25:50;;;;;;;;;;;;;;;;;;5088248;28;20321;-66
2023/04/22 08:28:16;;;;;;;;;;;;;;;;;;5074084;28;19924;-66
2023/04/22 08:30:42;;;;;;;;;;;;;;;;;;5090694;28;19931;-66
2023/04/22 08:33:08;;;;;;;;;;;;;;;;;;5090826;28;19958;-66
2023/04/22 08:35:34;;;;;;;;;;;;;;;;;;5088182;28;19977;-66
2023/04/22 08:38:00;;;;;;;;;;;;;;;;;;5065133;28;19970;-66
2023/04/22 08:40:26;;;;;;;;;;;;;;;;;;5097538;28;20323;-66
2023/04/22 08:42:52;;;;;;;;;;;;;;;;;;5089663;28;19973;-66
2023/04/22 08:45:17;;;;;;;;;;;;;;;;;;5092197;28;19920;-65
2023/04/22 08:47:43;;;;;;;;;;;;;;;;;;5092603;28;19920;-65
2023/04/22 08:50:09;;;;;;;;;;;;;;;;;;5093419;28;19970;-65
2023/04/22 08:52:35;;;;;;;;;;;;;;;;;;5091178;28;20262;-65
2023/04/22 08:55:01;;;;;;;;;;;;;;;;;;5093430;28;19924;-66
2023/04/22 08:57:27;;;;;;;;;;;;;;;;;;5089967;28;19940;-66
2023/04/22 08:59:55;;;;;;;;;;;;;;;;;;5073023;28;19978;-67
2023/04/22 09:02:20;;;;;;;;;;;;;;;;;;5091152;28;20694;-67
2023/04/22 09:04:46;;;;;;;;;;;;;;;;;;5081237;28;19931;-65
2023/04/22 09:07:14;;;;;;;;;;;;;;;;;;5074477;28;19924;-67
2023/04/22 09:09:40;;;;;;;;;;;;;;;;;;5092329;28;19965;-66
2023/04/22 09:12:06;;;;;;;;;;;;;;;;;;5094113;28;19920;-66
2023/04/22 09:14:32;;;;;;;;;;;;;;;;;;5093045;28;19929;-67
2023/04/22 09:16:58;;;;;;;;;;;;;;;;;;5089795;28;20439;-66
2023/04/22 09:19:24;;;;;;;;;;;;;;;;;;5092432;28;19959;-64
2023/04/22 09:21:51;;;;;;;;;;;;;;;;;;5090616;28;19920;-66
2023/04/22 09:24:16;;;;;;;;;;;;;;;;;;5093484;28;20030;-65
2023/04/22 09:26:42;;;;;;;;;;;;;;;;;;5057093;28;20023;-65
2023/04/22 09:29:08;;;;;;;;;;;;;;;;;;5093818;28;19920;-66
2023/04/22 09:31:36;;;;;;;;;;;;;;;;;;5091559;28;19920;-65
2023/04/22 09:34:02;;;;;;;;;;;;;;;;;;5081394;28;19972;-66
2023/04/22 09:36:28;;;;;;;;;;;;;;;;;;5082131;28;20005;-66
2023/04/22 09:38:54;;;;;;;;;;;;;;;;;;5091609;28;20376;-66
2023/04/22 09:41:20;;;;;;;;;;;;;;;;;;5092788;28;19963;-65
2023/04/22 09:43:46;;;;;;;;;;;;;;;;;;5073933;28;20003;-66
2023/04/22 09:46:12;;;;;;;;;;;;;;;;;;5091587;28;20023;-65
2023/04/22 09:48:38;;;;;;;;;;;;;;;;;;5089779;28;19967;-65
2023/04/22 09:51:04;;;;;;;;;;;;;;;;;;5068059;28;19924;-66
2023/04/22 09:53:30;;;;;;;;;;;;;;;;;;5067931;28;19924;-65
2023/04/22 09:55:55;;;;;;;;;;;;;;;;;;5072313;28;20295;-66
2023/04/22 09:58:24;;;;;;;;;;;;;;;;;;5066757;28;19921;-66
2023/04/22 10:00:50;;;;;;;;;;;;;;;;;;5064572;28;19921;-65
2023/04/22 10:03:16;;;;;;;;;;;;;;;;;;5065648;28;19974;-65
2023/04/22 10:05:44;;;;;;;;;;;;;;;;;;5069410;28;19924;-65
2023/04/22 10:08:10;;;;;;;;;;;;;;;;;;5071217;28;19920;-65
2023/04/22 10:10:36;;;;;;;;;;;;;;;;;;5071656;28;19925;-65
2023/04/22 10:13:03;;;;;;;;;;;;;;;;;;5070877;28;19921;-65
2023/04/22 10:15:29;;;;;;;;;;;;;;;;;;5068662;28;19928;-64
2023/04/22 10:17:55;;;;;;;;;;;;;;;;;;5070521;28;19921;-65
2023/04/22 10:20:21;;;;;;;;;;;;;;;;;;5070669;28;20263;-66
2023/04/22 10:22:46;;;;;;;;;;;;;;;;;;5064525;28;19959;-66
2023/04/22 10:25:12;;;;;;;;;;;;;;;;;;5069269;28;19928;-65
2023/04/22 10:27:38;;;;;;;;;;;;;;;;;;5068750;28;19920;-65
2023/04/22 10:30:04;;;;;;;;;;;;;;;;;;5068681;28;19920;-66
2023/04/22 10:32:32;;;;;;;;;;;;;;;;;;5068544;28;19921;-65
2023/04/22 10:34:57;;;;;;;;;;;;;;;;;;5070595;28;19925;-65
2023/04/22 10:37:23;;;;;;;;;;;;;;;;;;5057433;28;19931;-65
2023/04/22 10:39:49;;;;;;;;;;;;;;;;;;5064332;28;19931;-65
2023/04/22 10:42:15;;;;;;;;;;;;;;;;;;5071555;28;20538;-65
2023/04/22 10:44:41;;;;;;;;;;;;;;;;;;5072027;28;19990;-62
2023/04/22 10:47:07;;;;;;;;;;;;;;;;;;5071832;28;20266;-62
2023/04/22 10:49:33;;;;;;;;;;;;;;;;;;5068064;28;19928;-62
2023/04/22 10:51:59;;;;;;;;;;;;;;;;;;5063279;28;19921;-61
2023/04/22 10:54:26;;;;;;;;;;;;;;;;;;5061254;28;20374;-60
2023/04/22 10:56:52;;;;;;;;;;;;;;;;;;5064261;28;19959;-61
2023/04/22 10:59:17;;;;;;;;;;;;;;;;;;5071543;28;19920;-62
2023/04/22 11:01:43;;;;;;;;;;;;;;;;;;5069880;28;20384;-62
2023/04/22 11:04:10;;;;;;;;;;;;;;;;;;5067567;28;19956;-62
2023/04/22 11:06:36;;;;;;;;;;;;;;;;;;5068450;28;20265;-62
2023/04/22 11:09:01;;;;;;;;;;;;;;;;;;5064864;28;20011;-61
2023/04/22 11:11:27;;;;;;;;;;;;;;;;;;5068792;28;19974;-61
2023/04/22 11:13:53;;;;;;;;;;;;;;;;;;5060741;28;20537;-62
2023/04/22 11:16:19;;;;;;;;;;;;;;;;;;5064483;28;19924;-62
2023/04/22 11:18:45;;;;;;;;;;;;;;;;;;5062344;28;20464;-62
2023/04/22 11:21:11;;;;;;;;;;;;;;;;;;5065274;28;19972;-62
2023/04/22 11:23:37;;;;;;;;;;;;;;;;;;5066880;28;19928;-64
2023/04/22 11:26:03;;;;;;;;;;;;;;;;;;5063769;28;20450;-65
2023/04/22 11:28:29;;;;;;;;;;;;;;;;;;5066992;28;19921;-65
2023/04/22 11:30:55;;;;;;;;;;;;;;;;;;5062294;28;20369;-65
2023/04/22 11:33:21;;;;;;;;;;;;;;;;;;5063603;28;20057;-64
2023/04/22 11:35:47;;;;;;;;;;;;;;;;;;5068315;28;20272;-65
2023/04/22 11:38:12;;;;;;;;;;;;;;;;;;5068818;28;19932;-66
2023/04/22 11:40:38;;;;;;;;;;;;;;;;;;5069230;28;19920;-66
2023/04/22 11:43:04;;;;;;;;;;;;;;;;;;5068634;28;19936;-65
2023/04/22 11:45:30;;;;;;;;;;;;;;;;;;5070416;28;19921;-66
2023/04/22 11:47:56;;;;;;;;;;;;;;;;;;5070325;28;20397;-66
2023/04/22 11:50:22;;;;;;;;;;;;;;;;;;5087044;28;20168;-66
2023/04/22 11:52:50;;;;;;;;;;;;;;;;;;5075253;28;21285;-67
2023/04/22 11:55:16;;;;;;;;;;;;;;;;;;5084877;28;20336;-66
2023/04/22 11:57:41;;;;;;;;;;;;;;;;;;5087921;28;19924;-66
2023/04/22 12:00:09;;;;;;;;;;;;;;;;;;5083728;28;19920;-66
2023/04/22 12:02:35;;;;;;;;;;;;;;;;;;5085733;28;20011;-66
2023/04/22 12:05:01;;;;;;;;;;;;;;;;;;5051350;28;19920;-66
2023/04/22 12:07:27;;;;;;;;;;;;;;;;;;5089656;28;19927;-67
2023/04/22 12:09:52;;;;;;;;;;;;;;;;;;5079034;28;19951;-66
2023/04/22 12:12:18;;;;;;;;;;;;;;;;;;5064162;28;20428;-66
2023/04/22 12:14:45;;;;;;;;;;;;;;;;;;5061662;28;19928;-66
2023/04/22 12:17:11;;;;;;;;;;;;;;;;;;5081545;28;20284;-65
2023/04/22 12:19:37;;;;;;;;;;;;;;;;;;5088528;28;20046;-64
2023/04/22 12:22:03;;;;;;;;;;;;;;;;;;5091233;28;19931;-65
2023/04/22 12:24:29;;;;;;;;;;;;;;;;;;5054311;28;20362;-65
2023/04/22 12:26:55;;;;;;;;;;;;;;;;;;5038080;28;20668;-66
2023/04/22 12:29:21;;;;;;;;;;;;;;;;;;5077880;28;19928;-65
2023/04/22 12:31:47;;;;;;;;;;;;;;;;;;5063849;28;20370;-65
2023/04/22 12:34:23;;;;;;;;;;;;;;;;;;5073140;28;19935;-65
2023/04/22 12:36:49;;;;;;;;;;;;;;;;;;5090025;28;19924;-65
2023/04/22 12:39:15;;;;;;;;;;;;;;;;;;5085879;28;19946;-65
2023/04/22 12:41:40;;;;;;;;;;;;;;;;;;5085041;28;19965;-65
2023/04/22 12:44:09;;;;;;;;;;;;;;;;;;5072752;28;19923;-64
2023/04/22 12:46:35;;;;;;;;;;;;;;;;;;5085236;28;20049;-65
2023/04/22 12:49:01;;;;;;;;;;;;;;;;;;5036055;28;1719487;-64
2023/04/22 12:51:27;;;;;;;;;;;;;;;;;;5113411;28;19924;-65
2023/04/22 12:53:53;;;;;;;;;;;;;;;;;;5086647;28;19971;-65
2023/04/22 12:56:19;;;;;;;;;;;;;;;;;;5085541;28;20327;-66
2023/04/22 12:58:45;;;;;;;;;;;;;;;;;;5092717;28;20380;-65
2023/04/22 13:01:11;;;;;;;;;;;;;;;;;;5092657;28;19973;-66
2023/04/22 13:03:37;;;;;;;;;;;;;;;;;;5082745;28;19974;-66
2023/04/22 13:06:03;;;;;;;;;;;;;;;;;;5070912;28;19935;-66
2023/04/22 13:08:29;;;;;;;;;;;;;;;;;;5102998;28;19920;-66
2023/04/22 13:10:55;;;;;;;;;;;;;;;;;;5089885;28;19927;-66
2023/04/22 13:13:21;;;;;;;;;;;;;;;;;;5092434;28;20293;-65
2023/04/22 13:15:51;;;;;;;;;;;;;;;;;;5093821;28;19951;-66
2023/04/22 13:18:17;;;;;;;;;;;;;;;;;;5073243;28;19931;-66
2023/04/22 13:20:43;;;;;;;;;;;;;;;;;;5085175;28;19920;-66
2023/04/22 13:23:09;;;;;;;;;;;;;;;;;;5072599;28;20404;-66
2023/04/22 13:25:35;;;;;;;;;;;;;;;;;;5091679;28;19930;-66
2023/04/22 13:28:01;;;;;;;;;;;;;;;;;;5086149;28;20274;-66
2023/04/22 13:30:27;;;;;;;;;;;;;;;;;;5092512;28;19970;-62
2023/04/22 13:32:53;;;;;;;;;;;;;;;;;;5069902;28;20292;-62
2023/04/22 13:35:19;;;;;;;;;;;;;;;;;;5081860;28;19924;-62
2023/04/22 13:37:45;;;;;;;;;;;;;;;;;;5072076;28;19927;-62
2023/04/22 13:40:11;;;;;;;;;;;;;;;;;;5095529;28;19963;-62
2023/04/22 13:42:37;;;;;;;;;;;;;;;;;;5091457;28;20124;-62
2023/04/22 13:45:03;;;;;;;;;;;;;;;;;;5092296;28;20041;-62
2023/04/22 13:47:29;;;;;;;;;;;;;;;;;;5087954;28;19924;-62
2023/04/22 13:49:56;;;;;;;;;;;;;;;;;;5065575;28;19933;-62
2023/04/22 13:52:22;;;;;;;;;;;;;;;;;;5060946;28;19928;-62
2023/04/22 13:54:48;;;;;;;;;;;;;;;;;;5089324;28;20296;-62
2023/04/22 13:57:14;;;;;;;;;;;;;;;;;;5092061;28;19920;-62
2023/04/22 13:59:40;;;;;;;;;;;;;;;;;;5073021;28;20066;-62
2023/04/22 14:02:06;;;;;;;;;;;;;;;;;;5084046;28;19926;-62
2023/04/22 14:04:32;;;;;;;;;;;;;;;;;;5091560;28;19920;-62
2023/04/22 14:06:57;;;;;;;;;;;;;;;;;;5089349;28;20289;-62
2023/04/22 14:09:23;;;;;;;;;;;;;;;;;;5074250;28;19928;-62
2023/04/22 14:11:49;;;;;;;;;;;;;;;;;;5092922;28;19981;-62
2023/04/22 14:14:15;;;;;;;;;;;;;;;;;;5092759;28;20389;-62
2023/04/22 14:16:41;;;;;;;;;;;;;;;;;;5092964;28;20253;-62
2023/04/22 14:19:09;;;;;;;;;;;;;;;;;;5087154;28;19920;-62
2023/04/22 14:21:35;;;;;;;;;;;;;;;;;;5072390;28;19927;-61
2023/04/22 14:24:00;;;;;;;;;;;;;;;;;;5098757;28;20006;-62
2023/04/22 14:26:26;;;;;;;;;;;;;;;;;;5091305;28;20620;-62
2023/04/22 14:28:52;;;;;;;;;;;;;;;;;;5073506;28;20105;-62
2023/04/22 14:31:18;;;;;;;;;;;;;;;;;;5074004;28;19921;-62
2023/04/22 14:33:44;;;;;;;;;;;;;;;;;;5106138;28;19934;-62
2023/04/22 14:36:10;;;;;;;;;;;;;;;;;;5088810;28;19920;-62
2023/04/22 14:38:36;;;;;;;;;;;;;;;;;;5087715;28;20035;-62
2023/04/22 14:41:04;;;;;;;;;;;;;;;;;;5080657;28;19924;-62
2023/04/22 14:43:30;;;;;;;;;;;;;;;;;;5071716;28;19928;-62
2023/04/22 14:45:56;;;;;;;;;;;;;;;;;;5086951;28;19931;-61
2023/04/22 14:48:23;;;;;;;;;;;;;;;;;;5088446;28;19920;-63
2023/04/22 14:50:49;;;;;;;;;;;;;;;;;;5089416;28;20017;-62
2023/04/22 14:53:15;;;;;;;;;;;;;;;;;;5089095;28;20037;-61
2023/04/22 14:55:41;;;;;;;;;;;;;;;;;;5086680;28;20317;-62
2023/04/22 14:58:07;;;;;;;;;;;;;;;;;;5091327;28;19920;-62
2023/04/22 15:00:33;;;;;;;;;;;;;;;;;;5087849;28;19928;-62
2023/04/22 15:02:59;;;;;;;;;;;;;;;;;;5087773;28;20458;-62
2023/04/22 15:05:25;;;;;;;;;;;;;;;;;;5083950;28;19920;-62
2023/04/22 15:07:51;;;;;;;;;;;;;;;;;;5090757;28;19928;-62
2023/04/22 15:10:17;;;;;;;;;;;;;;;;;;5090290;28;19924;-62
2023/04/22 15:12:43;;;;;;;;;;;;;;;;;;5072321;28;20012;-62
2023/04/22 15:15:14;;;;;;;;;;;;;;;;;;5089270;28;20461;-62
2023/04/22 15:17:40;;;;;;;;;;;;;;;;;;5068356;28;19920;-63
2023/04/22 15:20:06;;;;;;;;;;;;;;;;;;5074417;28;19979;-62
2023/04/22 15:22:32;;;;;;;;;;;;;;;;;;5068881;28;19986;-62
2023/04/22 15:24:58;;;;;;;;;;;;;;;;;;5067746;28;20014;-62
2023/04/22 15:27:24;;;;;;;;;;;;;;;;;;5085368;28;20019;-62
2023/04/22 15:29:50;;;;;;;;;;;;;;;;;;5073793;28;19924;-64
2023/04/22 15:32:16;;;;;;;;;;;;;;;;;;5091764;28;19971;-62
2023/04/22 15:34:42;;;;;;;;;;;;;;;;;;5093515;28;20358;-62
2023/04/22 15:37:07;;;;;;;;;;;;;;;;;;5093873;28;19920;-62
2023/04/22 15:39:33;;;;;;;;;;;;;;;;;;5084928;28;20019;-61
2023/04/22 15:42:00;;;;;;;;;;;;;;;;;;5091272;28;20450;-62
2023/04/22 15:44:26;;;;;;;;;;;;;;;;;;5084442;28;19920;-61
2023/04/22 15:46:52;;;;;;;;;;;;;;;;;;5075995;28;19924;-62
2023/04/22 15:49:18;;;;;;;;;;;;;;;;;;5072044;28;20360;-62
2023/04/22 15:51:44;;;;;;;;;;;;;;;;;;5073704;28;19926;-61
2023/04/22 15:54:09;;;;;;;;;;;;;;;;;;5073408;28;19928;-62
2023/04/22 15:56:35;;;;;;;;;;;;;;;;;;5073228;28;20587;-62
2023/04/22 15:59:01;;;;;;;;;;;;;;;;;;5076525;28;19931;-62
2023/04/22 16:01:27;;;;;;;;;;;;;;;;;;5069150;28;19920;-62
2023/04/22 16:03:53;;;;;;;;;;;;;;;;;;5073218;28;20238;-62
2023/04/22 16:06:19;;;;;;;;;;;;;;;;;;5072001;28;19932;-62
2023/04/22 16:08:45;;;;;;;;;;;;;;;;;;5070439;28;19924;-62
2023/04/22 16:11:11;;;;;;;;;;;;;;;;;;5069574;28;20400;-62
2023/04/22 16:13:37;;;;;;;;;;;;;;;;;;5067821;28;19943;-62
2023/04/22 16:16:03;;;;;;;;;;;;;;;;;;5066490;28;20138;-62
2023/04/22 16:18:29;;;;;;;;;;;;;;;;;;5071828;28;20463;-62
2023/04/22 16:20:55;;;;;;;;;;;;;;;;;;5073167;28;20007;-62
2023/04/22 16:23:21;;;;;;;;;;;;;;;;;;5072400;28;20005;-61
2023/04/22 16:25:47;;;;;;;;;;;;;;;;;;5075843;28;19993;-62
2023/04/22 16:28:13;;;;;;;;;;;;;;;;;;5070398;28;19931;-62
2023/04/22 16:30:39;;;;;;;;;;;;;;;;;;5077702;28;19920;-62
2023/04/22 16:33:05;;;;;;;;;;;;;;;;;;5075162;28;19958;-62
2023/04/22 16:35:31;;;;;;;;;;;;;;;;;;5066737;28;19933;-62
2023/04/22 16:37:57;;;;;;;;;;;;;;;;;;5078465;28;19920;-62